createdAt,value
2019-01-17T00:00:54.840Z,89.35
2019-01-17T00:04:04.507Z,89.44
2019-01-17T00:07:32.414Z,89.56
2019-01-17T00:10:56.761Z,89.75
2019-01-17T00:13:37.333Z,89.85
2019-01-17T00:16:48.694Z,89.98
2019-01-17T00:19:52.010Z,90.07
2019-01-17T00:23:11.490Z,90.19
2019-01-17T00:26:04.977Z,90.28
2019-01-17T00:29:16.126Z,90.34
2019-01-17T00:32:27.522Z,90.37
2019-01-17T00:35:19.446Z,90.40
2019-01-17T00:38:04.845Z,90.41
2019-01-17T00:41:33.736Z,90.49
2019-01-17T00:44:47.837Z,90.55
2019-01-17T00:47:56.565Z,90.53
2019-01-17T00:50:48.776Z,90.59
2019-01-17T00:53:57.439Z,90.70
2019-01-17T00:56:52.893Z,90.73
2019-01-17T01:00:17.061Z,90.81
2019-01-17T01:03:08.108Z,90.86
2019-01-17T01:06:19.464Z,90.91
2019-01-17T01:09:23.951Z,90.88
2019-01-17T01:12:20.708Z,90.94
2019-01-17T01:15:11.186Z,90.95
2019-01-17T01:17:57.180Z,91.11
2019-01-17T01:20:49.501Z,91.18
2019-01-17T01:24:02.083Z,91.28
2019-01-17T01:27:00.412Z,91.32
2019-01-17T01:29:51.361Z,91.31
2019-01-17T01:33:09.312Z,91.39
2019-01-17T01:36:18.074Z,91.40
2019-01-17T01:39:23.055Z,91.45
2019-01-17T01:42:36.704Z,91.40
2019-01-17T01:45:20.024Z,91.40
2019-01-17T01:48:25.323Z,91.44
2019-01-17T01:51:17.494Z,91.47
2019-01-17T01:53:52.406Z,91.51
2019-01-17T01:56:35.003Z,91.61
2019-01-17T01:59:17.914Z,91.62
2019-01-17T02:01:52.119Z,91.63
2019-01-17T02:04:35.009Z,91.63
2019-01-17T02:07:18.543Z,91.68
2019-01-17T02:09:52.150Z,91.67
2019-01-17T02:12:25.245Z,91.70
2019-01-17T02:14:58.677Z,91.67
2019-01-17T02:17:32.715Z,91.57
2019-01-17T02:20:08.035Z,91.39
2019-01-17T02:22:41.663Z,91.19
2019-01-17T02:25:14.797Z,90.97
2019-01-17T02:27:48.579Z,90.82
2019-01-17T02:30:28.574Z,90.75
2019-01-17T02:33:02.441Z,90.70
2019-01-17T02:35:35.014Z,90.63
2019-01-17T02:38:16.962Z,90.54
2019-01-17T02:40:50.174Z,90.50
2019-01-17T02:43:23.604Z,90.57
2019-01-17T02:46:06.137Z,90.61
2019-01-17T02:48:48.665Z,90.63
2019-01-17T02:51:22.217Z,90.50
2019-01-17T02:53:56.203Z,90.38
2019-01-17T02:56:33.006Z,90.30
2019-01-17T02:59:06.876Z,90.13
2019-01-17T03:01:54.739Z,90.09
2019-01-17T03:04:27.889Z,89.99
2019-01-17T03:07:01.315Z,89.75
2019-01-17T03:09:44.080Z,89.52
2019-01-17T03:12:29.787Z,89.44
2019-01-17T03:15:04.191Z,89.30
2019-01-17T03:17:37.748Z,89.20
2019-01-17T03:20:13.174Z,89.09
2019-01-17T03:22:56.881Z,89.05
2019-01-17T03:25:41.876Z,89.04
2019-01-17T03:28:24.170Z,89.00
2019-01-17T03:31:07.510Z,88.84
2019-01-17T03:33:40.960Z,88.80
2019-01-17T03:36:14.429Z,88.72
2019-01-17T03:38:47.883Z,88.78
2019-01-17T03:41:22.390Z,88.78
2019-01-17T03:43:56.547Z,88.70
2019-01-17T03:46:39.387Z,88.56
2019-01-17T03:49:21.755Z,88.54
2019-01-17T03:52:04.265Z,88.47
2019-01-17T03:54:38.189Z,88.39
2019-01-17T03:57:21.400Z,88.32
2019-01-17T04:00:05.753Z,88.21
2019-01-17T04:02:51.333Z,88.20
2019-01-17T04:05:33.382Z,88.11
2019-01-17T04:08:06.835Z,88.08
2019-01-17T04:10:40.838Z,87.89
2019-01-17T04:13:15.938Z,87.82
2019-01-17T04:15:49.319Z,87.88
2019-01-17T04:18:23.223Z,87.84
2019-01-17T04:20:56.961Z,87.80
2019-01-17T04:23:31.159Z,87.67
2019-01-17T04:26:13.218Z,87.66
2019-01-17T04:28:46.758Z,87.70
2019-01-17T04:31:19.926Z,87.71
2019-01-17T04:33:59.411Z,87.60
2019-01-17T04:36:42.195Z,87.38
2019-01-17T04:39:24.884Z,87.33
2019-01-17T04:42:07.012Z,87.36
2019-01-17T04:44:40.746Z,87.46
2019-01-17T04:47:14.597Z,87.50
2019-01-17T04:49:48.126Z,87.48
2019-01-17T04:52:21.282Z,87.36
2019-01-17T04:54:54.776Z,87.36
2019-01-17T04:57:28.245Z,87.23
2019-01-17T05:00:01.359Z,87.26
2019-01-17T05:02:43.744Z,87.14
2019-01-17T05:05:16.794Z,87.12
2019-01-17T05:07:51.560Z,87.08
2019-01-17T05:10:33.798Z,87.19
2019-01-17T05:13:07.490Z,87.12
2019-01-17T05:15:42.329Z,87.08
2019-01-17T05:18:16.700Z,87.03
2019-01-17T05:20:58.989Z,87.08
2019-01-17T05:23:32.533Z,87.04
2019-01-17T05:26:05.780Z,87.03
2019-01-17T05:28:39.660Z,87.14
2019-01-17T05:31:13.524Z,87.10
2019-01-17T05:33:48.068Z,87.13
2019-01-17T05:36:21.521Z,87.14
2019-01-17T05:39:07.128Z,87.18
2019-01-17T05:41:41.476Z,87.19
2019-01-17T05:44:14.566Z,87.21
2019-01-17T05:46:56.733Z,87.17
2019-01-17T05:49:30.236Z,87.24
2019-01-17T05:52:05.424Z,87.18
2019-01-17T05:54:39.243Z,87.13
2019-01-17T05:57:13.124Z,87.12
2019-01-17T05:59:46.589Z,87.06
2019-01-17T06:02:21.039Z,87.05
2019-01-17T06:04:54.624Z,87.04
2019-01-17T06:07:29.237Z,86.98
2019-01-17T06:10:01.887Z,86.95
2019-01-17T06:12:35.062Z,86.90
2019-01-17T06:15:20.479Z,86.93
2019-01-17T06:17:55.387Z,86.98
2019-01-17T06:20:29.392Z,86.94
2019-01-17T06:23:03.126Z,86.86
2019-01-17T06:25:36.539Z,86.81
2019-01-17T06:28:09.752Z,86.68
2019-01-17T06:30:42.857Z,86.61
2019-01-17T06:33:15.607Z,86.38
2019-01-17T06:35:49.201Z,86.26
2019-01-17T06:38:23.956Z,86.08
2019-01-17T06:40:57.404Z,85.89
2019-01-17T06:43:39.920Z,85.86
2019-01-17T06:46:24.481Z,85.71
2019-01-17T06:49:07.094Z,85.60
2019-01-17T06:51:40.523Z,85.54
2019-01-17T06:54:13.745Z,85.42
2019-01-17T06:56:47.295Z,85.36
2019-01-17T06:59:20.106Z,85.30
2019-01-17T07:01:54.199Z,85.23
2019-01-17T07:04:36.767Z,85.12
2019-01-17T07:07:19.117Z,85.12
2019-01-17T07:09:53.059Z,85.17
2019-01-17T07:12:35.848Z,85.33
2019-01-17T07:15:18.326Z,85.46
2019-01-17T07:17:51.609Z,85.55
2019-01-17T07:20:25.557Z,85.60
2019-01-17T07:22:58.958Z,85.58
2019-01-17T07:25:32.602Z,85.55
2019-01-17T07:28:06.607Z,85.58
2019-01-17T07:30:40.934Z,85.67
2019-01-17T07:33:15.072Z,85.69
2019-01-17T07:35:49.005Z,85.71
2019-01-17T07:38:31.618Z,85.70
2019-01-17T07:41:05.756Z,85.65
2019-01-17T07:43:53.662Z,85.64
2019-01-17T07:46:36.574Z,85.58
2019-01-17T07:49:20.115Z,85.51
2019-01-17T07:52:02.758Z,85.44
2019-01-17T07:54:47.643Z,85.27
2019-01-17T07:57:32.850Z,85.21
2019-01-17T08:00:08.510Z,85.11
2019-01-17T08:02:51.128Z,85.14
2019-01-17T08:05:24.283Z,85.02
2019-01-17T08:07:58.124Z,84.90
2019-01-17T08:10:31.591Z,84.86
2019-01-17T08:13:05.498Z,84.78
2019-01-17T08:15:39.026Z,84.77
2019-01-17T08:18:18.518Z,84.69
2019-01-17T08:20:47.102Z,84.57
2019-01-17T08:23:20.244Z,84.44
2019-01-17T08:25:54.351Z,84.34
2019-01-17T08:28:27.991Z,84.21
2019-01-17T08:31:01.487Z,84.17
2019-01-17T08:33:34.980Z,84.09
2019-01-17T08:36:20.196Z,84.20
2019-01-17T08:38:54.273Z,84.22
2019-01-17T08:41:40.111Z,83.88
2019-01-17T08:44:22.952Z,83.60
2019-01-17T08:47:06.036Z,83.36
2019-01-17T08:49:48.580Z,83.23
2019-01-17T08:52:36.226Z,83.21
2019-01-17T08:55:09.503Z,82.90
2019-01-17T08:57:43.411Z,82.79
2019-01-17T09:00:18.614Z,82.75
2019-01-17T09:02:52.791Z,82.97
2019-01-17T09:05:26.932Z,82.57
2019-01-17T09:08:09.018Z,82.21
2019-01-17T09:10:42.198Z,82.38
2019-01-17T09:13:15.665Z,82.42
2019-01-17T09:15:49.512Z,82.42
2019-01-17T09:18:23.861Z,82.41
2019-01-17T09:21:06.269Z,82.50
2019-01-17T09:23:39.512Z,82.62
2019-01-17T09:26:14.062Z,82.75
2019-01-17T09:28:55.874Z,82.84
2019-01-17T09:31:29.057Z,82.81
2019-01-17T09:34:02.593Z,82.99
2019-01-17T09:36:36.080Z,82.80
2019-01-17T09:39:18.295Z,82.69
2019-01-17T09:41:51.792Z,82.62
2019-01-17T09:44:25.257Z,82.73
2019-01-17T09:46:59.087Z,82.76
2019-01-17T09:49:32.314Z,82.72
2019-01-17T09:52:05.953Z,82.64
2019-01-17T09:54:39.461Z,82.50
2019-01-17T09:57:12.942Z,82.43
2019-01-17T09:59:46.053Z,82.35
2019-01-17T10:02:27.915Z,82.27
2019-01-17T10:05:01.704Z,82.33
2019-01-17T10:07:35.325Z,82.24
2019-01-17T10:10:11.115Z,82.20
2019-01-17T10:12:53.851Z,82.07
2019-01-17T10:16:17.211Z,82.00
2019-01-17T10:19:26.938Z,81.96
2019-01-17T10:23:01.647Z,81.57
2019-01-17T10:26:00.199Z,81.73
2019-01-17T10:28:58.236Z,81.70
2019-01-17T10:32:36.059Z,81.49
2019-01-17T10:35:35.496Z,81.50
2019-01-17T10:38:53.645Z,81.37
2019-01-17T10:41:54.884Z,81.36
2019-01-17T10:45:12.647Z,81.39
2019-01-17T10:48:26.194Z,81.42
2019-01-17T10:51:55.718Z,81.14
2019-01-17T10:55:11.813Z,81.07
2019-01-17T10:58:23.401Z,81.44
2019-01-17T11:01:42.850Z,81.76
2019-01-17T11:04:52.374Z,82.14
2019-01-17T11:07:58.614Z,82.45
2019-01-17T11:11:07.430Z,82.57
2019-01-17T11:13:59.773Z,82.70
2019-01-17T11:16:58.741Z,82.95
2019-01-17T11:20:00.813Z,83.10
2019-01-17T11:23:10.409Z,83.20
2019-01-17T11:26:12.557Z,83.29
2019-01-17T11:29:24.226Z,83.44
2019-01-17T11:32:42.654Z,83.57
2019-01-17T11:35:48.251Z,83.41
2019-01-17T11:39:03.528Z,83.13
2019-01-17T11:42:23.854Z,83.01
2019-01-17T11:45:20.112Z,83.05
2019-01-17T11:48:41.910Z,82.84
2019-01-17T11:51:47.319Z,82.90
2019-01-17T11:54:53.321Z,82.58
2019-01-17T11:58:25.839Z,82.50
2019-01-17T12:01:48.061Z,82.63
2019-01-17T12:04:30.836Z,82.71
2019-01-17T12:07:10.044Z,82.62
2019-01-17T12:09:44.393Z,82.57
2019-01-17T12:12:22.459Z,82.48
2019-01-17T12:14:58.571Z,82.26
2019-01-17T12:17:31.730Z,82.22
2019-01-17T12:20:06.052Z,82.22
2019-01-17T12:22:50.345Z,81.97
2019-01-17T12:25:33.402Z,82.05
2019-01-17T12:28:16.533Z,81.53
2019-01-17T12:30:49.748Z,81.49
2019-01-17T12:33:23.852Z,81.48
2019-01-17T12:35:57.897Z,81.56
2019-01-17T12:38:31.301Z,81.41
2019-01-17T12:41:04.727Z,81.24
2019-01-17T12:43:37.895Z,81.17
2019-01-17T12:46:20.363Z,81.01
2019-01-17T12:49:03.870Z,80.67
2019-01-17T12:51:36.998Z,80.62
2019-01-17T12:54:19.788Z,80.85
2019-01-17T12:56:54.160Z,80.47
2019-01-17T12:59:28.182Z,80.33
2019-01-17T13:02:01.984Z,80.25
2019-01-17T13:04:47.675Z,80.38
2019-01-17T13:07:31.330Z,80.32
2019-01-17T13:10:14.380Z,80.29
2019-01-17T13:12:57.493Z,80.55
2019-01-17T13:15:40.424Z,80.93
2019-01-17T13:18:13.510Z,81.27
2019-01-17T13:20:46.741Z,82.06
2019-01-17T13:23:20.901Z,81.71
2019-01-17T13:25:54.164Z,82.44
2019-01-17T13:28:27.229Z,84.06
2019-01-17T13:31:09.676Z,85.43
2019-01-17T13:33:42.761Z,86.26
2019-01-17T13:36:16.265Z,87.02
2019-01-17T13:38:48.090Z,87.46
2019-01-17T13:41:22.058Z,87.84
2019-01-17T13:43:56.451Z,88.13
2019-01-17T13:46:38.787Z,88.33
2019-01-17T13:49:12.416Z,88.39
2019-01-17T13:51:45.854Z,88.63
2019-01-17T13:54:19.543Z,88.81
2019-01-17T13:56:53.046Z,88.87
2019-01-17T13:59:27.538Z,88.87
2019-01-17T14:02:16.163Z,88.94
2019-01-17T14:04:57.860Z,88.94
2019-01-17T14:07:30.991Z,88.98
2019-01-17T14:10:03.781Z,89.01
2019-01-17T14:12:36.949Z,89.10
2019-01-17T14:15:13.853Z,89.23
2019-01-17T14:17:47.049Z,89.38
2019-01-17T14:20:20.718Z,89.47
2019-01-17T14:22:54.037Z,89.42
2019-01-17T14:25:37.383Z,89.51
2019-01-17T14:28:19.717Z,89.59
2019-01-17T14:30:53.018Z,89.61
2019-01-17T14:33:26.916Z,89.66
2019-01-17T14:36:00.038Z,89.72
2019-01-17T14:38:33.130Z,89.69
2019-01-17T14:41:15.759Z,89.69
2019-01-17T14:43:59.320Z,89.74
2019-01-17T14:46:42.250Z,89.81
2019-01-17T14:49:15.384Z,89.79
2019-01-17T14:51:48.818Z,89.89
2019-01-17T14:54:21.935Z,89.95
2019-01-17T14:57:05.267Z,90.10
2019-01-17T14:59:38.727Z,90.07
2019-01-17T15:02:11.821Z,90.11
2019-01-17T15:04:45.816Z,90.16
2019-01-17T15:07:19.367Z,90.18
2019-01-17T15:09:53.114Z,90.24
2019-01-17T15:12:26.713Z,90.26
2019-01-17T15:15:01.056Z,90.24
2019-01-17T15:17:43.125Z,90.19
2019-01-17T15:20:18.433Z,90.15
2019-01-17T15:22:52.508Z,90.02
2019-01-17T15:25:26.310Z,89.94
2019-01-17T15:28:09.472Z,89.88
2019-01-17T15:30:42.286Z,89.89
2019-01-17T15:33:16.027Z,89.89
2019-01-17T15:35:49.139Z,89.82
2019-01-17T15:38:22.471Z,89.87
2019-01-17T15:40:55.849Z,89.85
2019-01-17T15:43:37.956Z,89.82
2019-01-17T15:46:11.050Z,89.73
2019-01-17T15:48:45.233Z,89.64
2019-01-17T15:51:18.819Z,89.53
2019-01-17T15:53:53.288Z,89.56
2019-01-17T15:56:27.428Z,89.44
2019-01-17T15:59:01.959Z,89.44
2019-01-17T16:01:35.905Z,89.43
2019-01-17T16:04:09.312Z,89.29
2019-01-17T16:06:42.416Z,89.29
2019-01-17T16:09:26.712Z,89.15
2019-01-17T16:12:10.427Z,89.10
2019-01-17T16:14:44.208Z,88.98
2019-01-17T16:17:27.688Z,88.84
2019-01-17T16:20:11.763Z,88.71
2019-01-17T16:22:44.642Z,88.55
2019-01-17T16:25:19.963Z,88.37
2019-01-17T16:27:53.757Z,88.20
2019-01-17T16:30:32.499Z,88.08
2019-01-17T16:33:05.575Z,87.93
2019-01-17T16:35:38.962Z,87.67
2019-01-17T16:38:12.959Z,87.59
2019-01-17T16:40:46.278Z,87.54
2019-01-17T16:43:30.601Z,87.51
2019-01-17T16:46:03.714Z,87.47
2019-01-17T16:48:46.487Z,87.43
2019-01-17T16:51:29.073Z,87.30
2019-01-17T16:54:02.877Z,87.20
2019-01-17T16:56:45.670Z,87.18
2019-01-17T16:59:28.514Z,87.13
2019-01-17T17:02:10.788Z,87.13
2019-01-17T17:04:43.885Z,87.01
2019-01-17T17:07:17.014Z,86.84
2019-01-17T17:09:59.912Z,86.51
2019-01-17T17:12:33.436Z,86.34
2019-01-17T17:15:08.039Z,86.39
2019-01-17T17:17:51.180Z,86.73
2019-01-17T17:20:25.055Z,86.68
2019-01-17T17:22:58.192Z,86.69
2019-01-17T17:25:31.625Z,86.87
2019-01-17T17:28:05.413Z,87.23
2019-01-17T17:30:39.060Z,87.58
2019-01-17T17:33:17.545Z,87.81
2019-01-17T17:35:52.400Z,88.07
2019-01-17T17:38:25.763Z,88.39
2019-01-17T17:40:59.423Z,88.48
2019-01-17T17:43:32.856Z,88.54
2019-01-17T17:46:06.387Z,88.63
2019-01-17T17:48:48.791Z,88.60
2019-01-17T17:51:32.206Z,88.46
2019-01-17T17:54:15.240Z,88.45
2019-01-17T17:56:48.378Z,88.51
2019-01-17T17:59:21.969Z,88.59
2019-01-17T18:02:00.960Z,88.71
2019-01-17T18:04:34.714Z,88.94
2019-01-17T18:07:08.876Z,89.04
2019-01-17T18:09:42.383Z,89.10
2019-01-17T18:12:16.000Z,89.02
2019-01-17T18:14:49.650Z,89.09
2019-01-17T18:17:22.416Z,88.91
2019-01-17T18:19:55.560Z,88.83
2019-01-17T18:22:28.943Z,88.81
2019-01-17T18:25:02.167Z,88.90
2019-01-17T18:27:47.491Z,88.97
2019-01-17T18:30:29.401Z,88.72
2019-01-17T18:33:05.506Z,88.70
2019-01-17T18:35:47.504Z,88.78
2019-01-17T18:38:21.953Z,88.78
2019-01-17T18:41:05.336Z,88.80
2019-01-17T18:43:38.450Z,88.84
2019-01-17T18:46:21.945Z,88.83
2019-01-17T18:49:05.989Z,88.75
2019-01-17T18:51:48.386Z,88.77
2019-01-17T18:54:34.373Z,88.81
2019-01-17T18:57:16.846Z,88.82
2019-01-17T18:59:50.509Z,88.86
2019-01-17T19:02:40.032Z,88.85
2019-01-17T19:05:13.788Z,88.90
2019-01-17T19:07:47.546Z,89.03
2019-01-17T19:10:21.543Z,89.03
2019-01-17T19:13:05.471Z,89.04
2019-01-17T19:15:39.313Z,89.07
2019-01-17T19:18:12.442Z,89.09
2019-01-17T19:20:45.911Z,88.96
2019-01-17T19:23:19.334Z,88.92
2019-01-17T19:25:53.520Z,88.65
2019-01-17T19:28:27.015Z,88.58
2019-01-17T19:30:59.607Z,88.63
2019-01-17T19:33:34.187Z,88.58
2019-01-17T19:36:07.286Z,88.65
2019-01-17T19:38:40.700Z,88.69
2019-01-17T19:41:28.837Z,88.62
2019-01-17T19:44:02.064Z,88.47
2019-01-17T19:46:35.875Z,88.42
2019-01-17T19:49:08.984Z,88.38
2019-01-17T19:51:42.468Z,88.25
2019-01-17T19:54:15.581Z,88.22
2019-01-17T19:56:58.371Z,88.16
2019-01-17T19:59:41.265Z,88.07
2019-01-17T20:02:33.628Z,87.98
2019-01-17T20:05:08.159Z,87.90
2019-01-17T20:07:41.650Z,87.71
2019-01-17T20:10:17.523Z,87.57
2019-01-17T20:12:51.040Z,87.44
2019-01-17T20:15:24.840Z,87.44
2019-01-17T20:17:58.654Z,87.47
2019-01-17T20:20:33.756Z,87.54
2019-01-17T20:23:16.472Z,87.70
2019-01-17T20:25:50.882Z,87.79
2019-01-17T20:28:24.331Z,87.97
2019-01-17T20:30:58.055Z,88.11
2019-01-17T20:33:40.123Z,88.20
2019-01-17T20:36:23.377Z,88.23
2019-01-17T20:39:08.231Z,88.35
2019-01-17T20:41:41.779Z,88.33
2019-01-17T20:44:15.603Z,88.30
2019-01-17T20:46:49.114Z,88.21
2019-01-17T20:49:22.841Z,88.07
2019-01-17T20:51:56.477Z,87.97
2019-01-17T20:54:29.563Z,87.83
2019-01-17T20:57:03.136Z,87.85
2019-01-17T20:59:49.475Z,87.63
2019-01-17T21:02:22.515Z,87.50
2019-01-17T21:05:04.899Z,87.29
2019-01-17T21:07:47.803Z,86.87
2019-01-17T21:10:22.364Z,86.83
2019-01-17T21:12:57.079Z,86.87
2019-01-17T21:15:39.846Z,86.95
2019-01-17T21:18:12.950Z,86.91
2019-01-17T21:20:57.609Z,87.10
2019-01-17T21:23:31.296Z,87.31
2019-01-17T21:26:04.933Z,87.58
2019-01-17T21:28:38.651Z,87.92
2019-01-17T21:31:16.542Z,88.22
2019-01-17T21:33:50.103Z,88.44
2019-01-17T21:36:33.115Z,88.55
2019-01-17T21:39:08.522Z,88.57
2019-01-17T21:41:42.385Z,88.71
2019-01-17T21:44:15.836Z,88.81
2019-01-17T21:46:49.554Z,88.98
2019-01-17T21:49:35.183Z,89.12
2019-01-17T21:52:08.475Z,89.29
2019-01-17T21:54:51.154Z,89.48
2019-01-17T21:57:35.039Z,89.54
2019-01-17T22:00:13.209Z,89.62
2019-01-17T22:02:57.037Z,89.64
2019-01-17T22:05:30.155Z,89.66
2019-01-17T22:08:04.882Z,89.69
2019-01-17T22:10:46.982Z,89.77
2019-01-17T22:13:20.175Z,89.78
2019-01-17T22:15:54.535Z,89.71
2019-01-17T22:18:38.382Z,89.67
2019-01-17T22:21:12.715Z,89.45
2019-01-17T22:23:47.068Z,89.40
2019-01-17T22:26:21.077Z,89.36
2019-01-17T22:28:55.425Z,89.28
2019-01-17T22:31:29.382Z,89.22
2019-01-17T22:34:02.518Z,89.25
2019-01-17T22:36:36.481Z,89.11
2019-01-17T22:39:19.304Z,88.99
2019-01-17T22:41:52.680Z,89.13
2019-01-17T22:44:26.530Z,89.06
2019-01-17T22:46:59.978Z,88.97
2019-01-17T22:49:33.818Z,88.79
2019-01-17T22:52:06.899Z,88.68
2019-01-17T22:54:40.869Z,88.59
2019-01-17T22:57:14.207Z,88.40
2019-01-17T22:59:47.478Z,88.27
2019-01-17T23:02:20.876Z,88.03
2019-01-17T23:04:54.002Z,87.80
2019-01-17T23:07:37.590Z,87.47
2019-01-17T23:10:10.740Z,87.16
2019-01-17T23:12:52.943Z,86.66
2019-01-17T23:15:26.154Z,86.13
2019-01-17T23:17:59.877Z,85.70
2019-01-17T23:20:33.451Z,85.38
2019-01-17T23:23:06.880Z,84.92
2019-01-17T23:25:41.111Z,84.79
2019-01-17T23:28:14.575Z,84.65
2019-01-17T23:30:57.236Z,84.31
2019-01-17T23:33:40.795Z,84.34
2019-01-17T23:36:22.710Z,84.38
2019-01-17T23:38:56.222Z,84.26
2019-01-17T23:41:41.417Z,84.46
2019-01-17T23:44:24.235Z,84.37
2019-01-17T23:46:58.373Z,84.11
2019-01-17T23:49:32.281Z,84.10
2019-01-17T23:52:05.859Z,83.99
2019-01-17T23:54:39.937Z,84.14
2019-01-17T23:57:11.844Z,83.92
2019-01-17T23:59:45.703Z,83.88
